createdAt,value
2023-05-23T00:00:42.112Z,99.99
2023-05-23T00:01:42.193Z,99.99
2023-05-23T00:02:42.352Z,99.99
2023-05-23T00:03:42.259Z,99.99
2023-05-23T00:04:42.213Z,99.99
2023-05-23T00:05:42.352Z,99.99
2023-05-23T00:06:42.261Z,99.99
2023-05-23T00:07:42.286Z,99.99
2023-05-23T00:08:42.313Z,99.99
2023-05-23T00:09:42.443Z,99.99
2023-05-23T00:10:42.368Z,99.99
2023-05-23T00:11:42.393Z,99.99
2023-05-23T00:12:42.442Z,99.99
2023-05-23T00:13:42.435Z,99.99
2023-05-23T00:14:42.461Z,99.99
2023-05-23T00:15:42.548Z,99.99
2023-05-23T00:16:42.533Z,99.99
2023-05-23T00:17:42.586Z,99.99
2023-05-23T00:18:42.562Z,99.99
2023-05-23T00:19:42.590Z,99.99
2023-05-23T00:20:42.615Z,99.99
2023-05-23T00:21:42.641Z,99.99
2023-05-23T00:22:42.666Z,99.99
2023-05-23T00:23:42.708Z,99.99
2023-05-23T00:24:42.722Z,99.99
2023-05-23T00:25:42.965Z,99.99
2023-05-23T00:26:42.769Z,99.99
2023-05-23T00:27:42.796Z,99.99
2023-05-23T00:28:42.820Z,99.99
2023-05-23T00:29:42.848Z,99.99
2023-05-23T00:30:42.880Z,99.99
2023-05-23T00:31:42.918Z,99.99
2023-05-23T00:32:42.927Z,99.99
2023-05-23T00:33:42.944Z,99.99
2023-05-23T00:34:42.971Z,99.99
2023-05-23T00:35:43.000Z,99.99
2023-05-23T00:36:43.024Z,99.99
2023-05-23T00:37:43.051Z,99.99
2023-05-23T00:38:43.074Z,99.99
2023-05-23T00:39:43.100Z,99.99
2023-05-23T00:40:43.131Z,99.99
2023-05-23T00:41:43.257Z,99.99
2023-05-23T00:42:43.182Z,99.99
2023-05-23T00:43:43.212Z,99.99
2023-05-23T00:44:43.252Z,99.99
2023-05-23T00:45:43.346Z,99.99
2023-05-23T00:46:43.306Z,99.99
2023-05-23T00:47:43.350Z,99.99
2023-05-23T00:48:43.338Z,99.99
2023-05-23T00:49:43.371Z,99.99
2023-05-23T00:50:43.385Z,99.99
2023-05-23T00:51:43.415Z,99.99
2023-05-23T00:52:43.438Z,99.99
2023-05-23T00:53:43.503Z,99.99
2023-05-23T00:54:43.502Z,99.99
2023-05-23T00:55:43.744Z,99.99
2023-05-23T00:56:43.549Z,99.99
2023-05-23T00:57:43.676Z,99.99
2023-05-23T00:58:43.592Z,99.99
2023-05-23T00:59:43.625Z,99.99
2023-05-23T01:00:43.650Z,99.99
2023-05-23T01:01:43.693Z,99.99
2023-05-23T01:02:43.758Z,99.99
2023-05-23T01:03:43.814Z,99.99
2023-05-23T01:04:43.757Z,99.99
2023-05-23T01:05:43.790Z,99.99
2023-05-23T01:06:43.806Z,99.99
2023-05-23T01:07:43.825Z,99.99
2023-05-23T01:08:43.854Z,99.99
2023-05-23T01:09:43.895Z,99.99
2023-05-23T01:10:43.897Z,99.99
2023-05-23T01:11:43.924Z,99.99
2023-05-23T01:12:43.952Z,99.99
2023-05-23T01:13:44.079Z,99.99
2023-05-23T01:14:44.002Z,99.99
2023-05-23T01:15:44.030Z,99.99
2023-05-23T01:16:44.067Z,99.99
2023-05-23T01:17:44.142Z,99.99
2023-05-23T01:18:44.104Z,99.99
2023-05-23T01:19:44.131Z,99.99
2023-05-23T01:20:44.161Z,99.99
2023-05-23T01:21:44.183Z,99.99
2023-05-23T01:22:44.209Z,99.99
2023-05-23T01:23:44.241Z,99.99
2023-05-23T01:24:44.257Z,99.99
2023-05-23T01:25:44.290Z,99.99
2023-05-23T01:26:44.303Z,99.99
2023-05-23T01:27:44.338Z,99.99
2023-05-23T01:28:44.366Z,99.99
2023-05-23T01:29:44.485Z,99.99
2023-05-23T01:30:44.413Z,99.99
2023-05-23T01:31:44.511Z,99.99
2023-05-23T01:32:44.511Z,99.99
2023-05-23T01:33:44.484Z,99.99
2023-05-23T01:34:44.508Z,99.99
2023-05-23T01:35:44.534Z,99.99
2023-05-23T01:36:44.560Z,99.99
2023-05-23T01:37:44.581Z,99.99
2023-05-23T01:38:44.610Z,99.99
2023-05-23T01:39:44.649Z,99.99
2023-05-23T01:40:44.660Z,99.99
2023-05-23T01:41:44.694Z,99.99
2023-05-23T01:42:44.723Z,99.99
2023-05-23T01:43:44.737Z,99.99
2023-05-23T01:44:44.764Z,99.99
2023-05-23T01:45:44.909Z,99.99
2023-05-23T01:46:44.813Z,99.99
2023-05-23T01:47:44.867Z,99.99
2023-05-23T01:48:44.863Z,99.99
2023-05-23T01:49:44.949Z,99.99
2023-05-23T01:50:44.915Z,99.99
2023-05-23T01:51:44.931Z,99.99
2023-05-23T01:52:44.963Z,99.99
2023-05-23T01:53:45.002Z,99.99
2023-05-23T01:54:45.016Z,99.99
2023-05-23T01:55:45.054Z,99.99
2023-05-23T01:56:45.089Z,99.99
2023-05-23T01:57:45.087Z,99.99
2023-05-23T01:58:45.111Z,99.99
2023-05-23T01:59:45.140Z,99.99
2023-05-23T02:00:45.229Z,99.99
2023-05-23T02:01:45.322Z,99.99
2023-05-23T02:02:45.276Z,99.99
2023-05-23T02:03:45.238Z,99.99
2023-05-23T02:04:45.263Z,99.99
2023-05-23T02:05:45.291Z,99.99
2023-05-23T02:06:45.311Z,99.99
2023-05-23T02:07:45.346Z,99.99
2023-05-23T02:08:45.367Z,99.99
2023-05-23T02:09:45.388Z,99.99
2023-05-23T02:10:45.414Z,99.99
2023-05-23T02:11:45.447Z,99.99
2023-05-23T02:12:45.464Z,99.99
2023-05-23T02:13:45.488Z,99.99
2023-05-23T02:14:45.512Z,99.99
2023-05-23T02:15:45.537Z,99.99
2023-05-23T02:16:45.597Z,99.99
2023-05-23T02:17:45.714Z,99.99
2023-05-23T02:18:45.688Z,99.99
2023-05-23T02:19:45.649Z,99.99
2023-05-23T02:20:45.689Z,99.99
2023-05-23T02:21:45.692Z,99.99
2023-05-23T02:22:45.721Z,99.99
2023-05-23T02:23:45.748Z,99.99
2023-05-23T02:24:45.763Z,99.99
2023-05-23T02:25:45.803Z,99.99
2023-05-23T02:26:45.819Z,99.99
2023-05-23T02:27:45.845Z,99.99
2023-05-23T02:28:45.867Z,99.99
2023-05-23T02:29:45.891Z,99.99
2023-05-23T02:30:46.015Z,99.99
2023-05-23T02:31:46.042Z,99.99
2023-05-23T02:32:45.988Z,99.99
2023-05-23T02:33:46.093Z,99.99
2023-05-23T02:34:46.048Z,99.99
2023-05-23T02:35:46.052Z,99.99
2023-05-23T02:36:46.068Z,99.99
2023-05-23T02:37:46.091Z,99.99
2023-05-23T02:38:46.123Z,99.99
2023-05-23T02:39:46.147Z,99.99
2023-05-23T02:40:46.170Z,99.99
2023-05-23T02:41:46.193Z,99.99
2023-05-23T02:42:46.222Z,99.99
2023-05-23T02:43:46.866Z,99.99
2023-05-23T02:44:46.269Z,99.99
2023-05-23T02:45:46.297Z,99.99
2023-05-23T02:46:46.426Z,99.99
2023-05-23T02:47:46.359Z,99.99
2023-05-23T02:48:46.374Z,99.99
2023-05-23T02:49:46.493Z,99.99
2023-05-23T02:50:46.418Z,99.99
2023-05-23T02:51:46.449Z,99.99
2023-05-23T02:52:46.481Z,99.99
2023-05-23T02:53:46.493Z,99.99
2023-05-23T02:54:46.517Z,99.99
2023-05-23T02:55:46.543Z,99.99
2023-05-23T02:56:46.579Z,99.99
2023-05-23T02:57:46.595Z,99.99
2023-05-23T02:58:46.628Z,99.99
2023-05-23T02:59:46.644Z,99.99
2023-05-23T03:00:46.681Z,99.99
2023-05-23T03:01:46.716Z,99.99
2023-05-23T03:02:46.773Z,99.99
2023-05-23T03:03:46.846Z,99.99
2023-05-23T03:04:46.779Z,99.99
2023-05-23T03:05:46.915Z,99.99
2023-05-23T03:06:46.834Z,99.99
2023-05-23T03:07:46.851Z,99.99
2023-05-23T03:08:46.883Z,99.99
2023-05-23T03:09:46.907Z,99.99
2023-05-23T03:10:46.932Z,99.99
2023-05-23T03:11:46.956Z,99.99
2023-05-23T03:12:46.994Z,99.99
2023-05-23T03:13:47.019Z,99.99
2023-05-23T03:14:47.032Z,99.99
2023-05-23T03:15:47.059Z,99.99
2023-05-23T03:16:47.195Z,99.99
2023-05-23T03:17:47.155Z,99.99
2023-05-23T03:18:47.162Z,99.99
2023-05-23T03:19:47.164Z,99.99
2023-05-23T03:20:47.186Z,99.99
2023-05-23T03:21:47.364Z,99.99
2023-05-23T03:22:47.235Z,99.99
2023-05-23T03:23:47.260Z,99.99
2023-05-23T03:24:47.282Z,99.99
2023-05-23T03:25:47.318Z,99.99
2023-05-23T03:26:47.380Z,99.99
2023-05-23T03:27:47.359Z,99.99
2023-05-23T03:28:47.388Z,99.99
2023-05-23T03:29:47.413Z,99.99
2023-05-23T03:30:47.438Z,99.99
2023-05-23T03:31:47.547Z,99.99
2023-05-23T03:32:47.599Z,99.99
2023-05-23T03:33:47.523Z,99.99
2023-05-23T03:34:47.539Z,99.99
2023-05-23T03:35:47.573Z,99.99
2023-05-23T03:36:47.598Z,99.99
2023-05-23T03:37:47.613Z,99.99
2023-05-23T03:38:47.639Z,99.99
2023-05-23T03:39:47.666Z,99.99
2023-05-23T03:40:47.687Z,99.99
2023-05-23T03:41:47.719Z,99.99
2023-05-23T03:42:47.740Z,99.99
2023-05-23T03:43:47.762Z,99.99
2023-05-23T03:44:47.793Z,99.99
2023-05-23T03:45:47.843Z,99.99
2023-05-23T03:46:47.845Z,99.99
2023-05-23T03:47:47.908Z,99.99
2023-05-23T03:48:47.889Z,99.99
2023-05-23T03:49:47.931Z,99.99
2023-05-23T03:50:47.973Z,99.99
2023-05-23T03:51:47.984Z,99.99
2023-05-23T03:52:47.986Z,99.99
2023-05-23T03:53:48.136Z,99.99
2023-05-23T03:54:48.040Z,99.99
2023-05-23T03:55:48.067Z,99.99
2023-05-23T03:56:48.100Z,99.99
2023-05-23T03:57:48.126Z,99.99
2023-05-23T03:58:48.144Z,99.99
2023-05-23T03:59:48.166Z,99.99
2023-05-23T04:00:48.190Z,99.99
2023-05-23T04:01:48.219Z,99.99
2023-05-23T04:02:48.296Z,99.99
2023-05-23T04:03:48.338Z,99.99
2023-05-23T04:04:48.289Z,99.99
2023-05-23T04:05:48.314Z,99.99
2023-05-23T04:06:48.341Z,99.99
2023-05-23T04:07:48.371Z,99.99
2023-05-23T04:08:48.400Z,99.99
2023-05-23T04:09:48.527Z,99.99
2023-05-23T04:10:48.440Z,99.99
2023-05-23T04:11:48.482Z,99.99
2023-05-23T04:12:48.487Z,99.99
2023-05-23T04:13:48.513Z,99.99
2023-05-23T04:14:48.544Z,99.99
2023-05-23T04:15:48.595Z,99.99
2023-05-23T04:16:48.604Z,99.99
2023-05-23T04:17:48.664Z,99.99
2023-05-23T04:18:48.707Z,99.99
2023-05-23T04:19:48.661Z,99.99
2023-05-23T04:20:48.685Z,99.99
2023-05-23T04:21:48.709Z,99.99
2023-05-23T04:22:48.722Z,99.99
2023-05-23T04:23:48.757Z,99.99
2023-05-23T04:24:48.777Z,99.99
2023-05-23T04:25:48.904Z,99.99
2023-05-23T04:26:48.836Z,99.99
2023-05-23T04:27:48.850Z,99.99
2023-05-23T04:28:48.874Z,99.99
2023-05-23T04:29:48.904Z,99.99
2023-05-23T04:30:48.929Z,99.99
2023-05-23T04:31:49.028Z,99.99
2023-05-23T04:32:49.000Z,99.99
2023-05-23T04:33:49.009Z,99.99
2023-05-23T04:34:49.029Z,99.99
2023-05-23T04:35:49.066Z,99.99
2023-05-23T04:36:49.086Z,99.99
2023-05-23T04:37:49.103Z,99.99
2023-05-23T04:38:49.129Z,99.99
2023-05-23T04:39:49.180Z,99.99
2023-05-23T04:40:49.178Z,99.99
2023-05-23T04:41:49.301Z,99.99
2023-05-23T04:42:49.228Z,99.99
2023-05-23T04:43:49.258Z,99.99
2023-05-23T04:44:49.280Z,99.99
2023-05-23T04:45:49.304Z,99.99
2023-05-23T04:46:49.351Z,99.99
2023-05-23T04:47:49.372Z,99.99
2023-05-23T04:48:49.388Z,99.99
2023-05-23T04:49:49.406Z,99.99
2023-05-23T04:50:49.433Z,99.99
2023-05-23T04:51:49.464Z,99.99
2023-05-23T04:52:49.479Z,99.99
2023-05-23T04:53:49.504Z,99.99
2023-05-23T04:54:49.531Z,99.99
2023-05-23T04:55:49.556Z,99.99
2023-05-23T04:56:49.597Z,99.99
2023-05-23T04:57:49.704Z,99.99
2023-05-23T04:58:49.631Z,99.99
2023-05-23T04:59:49.654Z,99.99
2023-05-23T05:00:49.742Z,99.99
2023-05-23T05:01:49.721Z,99.99
2023-05-23T05:02:49.797Z,99.99
2023-05-23T05:03:49.793Z,99.99
2023-05-23T05:04:49.773Z,99.99
2023-05-23T05:05:49.798Z,99.99
2023-05-23T05:06:49.828Z,99.99
2023-05-23T05:07:49.855Z,99.99
2023-05-23T05:08:49.880Z,99.99
2023-05-23T05:09:49.902Z,99.99
2023-05-23T05:10:49.924Z,99.99
2023-05-23T05:11:49.971Z,99.99
2023-05-23T05:12:49.980Z,99.99
2023-05-23T05:13:50.112Z,99.99
2023-05-23T05:14:50.040Z,99.99
2023-05-23T05:15:50.050Z,99.99
2023-05-23T05:16:50.108Z,99.99
2023-05-23T05:17:50.241Z,99.99
2023-05-23T05:18:50.138Z,99.99
2023-05-23T05:19:50.147Z,99.99
2023-05-23T05:20:50.190Z,99.99
2023-05-23T05:21:50.197Z,99.99
2023-05-23T05:22:50.228Z,99.99
2023-05-23T05:23:50.247Z,99.99
2023-05-23T05:24:50.286Z,99.99
2023-05-23T05:25:50.304Z,99.99
2023-05-23T05:26:50.321Z,99.99
2023-05-23T05:27:50.350Z,99.99
2023-05-23T05:28:50.370Z,99.99
2023-05-23T05:29:50.494Z,99.99
2023-05-23T05:30:50.447Z,99.99
2023-05-23T05:31:50.448Z,99.99
2023-05-23T05:32:50.493Z,99.99
2023-05-23T05:33:50.494Z,99.99
2023-05-23T05:34:50.529Z,99.99
2023-05-23T05:35:50.544Z,99.99
2023-05-23T05:36:50.571Z,99.99
2023-05-23T05:37:50.607Z,99.99
2023-05-23T05:38:50.641Z,99.99
2023-05-23T05:39:50.651Z,99.99
2023-05-23T05:40:50.684Z,99.99
2023-05-23T05:41:50.694Z,99.99
2023-05-23T05:42:50.721Z,99.99
2023-05-23T05:43:50.745Z,99.99
2023-05-23T05:44:50.773Z,99.99
2023-05-23T05:45:50.957Z,99.99
2023-05-23T05:46:50.879Z,99.99
2023-05-23T05:47:50.923Z,99.99
2023-05-23T05:48:50.873Z,99.99
2023-05-23T05:49:50.900Z,99.99
2023-05-23T05:50:50.923Z,99.99
2023-05-23T05:51:50.947Z,99.99
2023-05-23T05:52:50.973Z,99.99
2023-05-23T05:53:50.999Z,99.99
2023-05-23T05:54:51.022Z,99.99
2023-05-23T05:55:51.058Z,99.99
2023-05-23T05:56:51.086Z,99.99
2023-05-23T05:57:51.094Z,99.99
2023-05-23T05:58:51.118Z,99.99
2023-05-23T05:59:51.143Z,99.99
2023-05-23T06:00:51.168Z,99.99
2023-05-23T06:01:51.207Z,99.99
2023-05-23T06:02:51.332Z,99.99
2023-05-23T06:03:51.408Z,99.99
2023-05-23T06:04:51.291Z,99.99
2023-05-23T06:05:51.294Z,99.99
2023-05-23T06:06:51.321Z,99.99
2023-05-23T06:07:51.343Z,99.99
2023-05-23T06:08:51.397Z,99.99
2023-05-23T06:09:51.393Z,99.99
2023-05-23T06:10:51.415Z,99.99
2023-05-23T06:11:51.442Z,99.99
2023-05-23T06:12:51.465Z,99.99
2023-05-23T06:13:51.489Z,99.99
2023-05-23T06:14:51.514Z,99.99
2023-05-23T06:15:51.551Z,99.99
2023-05-23T06:16:51.560Z,99.99
2023-05-23T06:17:51.755Z,99.99
2023-05-23T06:18:51.649Z,99.99
2023-05-23T06:19:51.637Z,99.99
2023-05-23T06:20:51.668Z,99.99
2023-05-23T06:21:51.684Z,99.99
2023-05-23T06:22:51.713Z,99.99
2023-05-23T06:23:51.740Z,99.99
2023-05-23T06:24:52.941Z,99.99
2023-05-23T06:25:51.792Z,99.99
2023-05-23T06:26:51.811Z,99.99
2023-05-23T06:27:51.831Z,99.99
2023-05-23T06:28:51.858Z,99.99
2023-05-23T06:29:51.881Z,99.99
2023-05-23T06:30:51.914Z,99.99
2023-05-23T06:31:51.956Z,99.99
2023-05-23T06:32:51.996Z,99.99
2023-05-23T06:33:52.100Z,99.99
2023-05-23T06:34:52.001Z,99.99
2023-05-23T06:35:52.062Z,99.99
2023-05-23T06:36:52.061Z,99.99
2023-05-23T06:37:52.095Z,99.99
2023-05-23T06:38:52.101Z,99.99
2023-05-23T06:39:52.143Z,99.99
2023-05-23T06:40:52.164Z,99.99
2023-05-23T06:41:52.177Z,99.99
2023-05-23T06:42:52.200Z,99.99
2023-05-23T06:43:52.226Z,99.99
2023-05-23T06:44:52.251Z,99.99
2023-05-23T06:45:52.325Z,99.99
2023-05-23T06:46:52.297Z,99.99
2023-05-23T06:47:52.375Z,99.99
2023-05-23T06:49:02.535Z,99.99
2023-05-23T06:49:52.482Z,99.99
2023-05-23T06:50:52.410Z,99.99
2023-05-23T06:51:52.490Z,99.99
2023-05-23T06:52:52.446Z,99.99
2023-05-23T06:53:52.471Z,99.99
2023-05-23T06:54:52.490Z,99.99
2023-05-23T06:55:52.517Z,99.99
2023-05-23T06:56:52.542Z,99.99
2023-05-23T06:57:52.562Z,99.99
2023-05-23T06:58:52.588Z,99.99
2023-05-23T06:59:52.613Z,99.99
2023-05-23T07:00:52.686Z,99.99
2023-05-23T07:01:52.662Z,99.99
2023-05-23T07:02:52.735Z,99.99
2023-05-23T07:03:52.707Z,99.99
2023-05-23T07:04:52.756Z,99.99
2023-05-23T07:05:53.027Z,99.99
2023-05-23T07:06:52.781Z,99.99
2023-05-23T07:07:52.816Z,99.99
2023-05-23T07:08:52.836Z,99.99
2023-05-23T07:09:52.852Z,99.99
2023-05-23T07:10:52.882Z,99.99
2023-05-23T07:11:52.911Z,99.99
2023-05-23T07:12:52.922Z,99.99
2023-05-23T07:13:52.962Z,99.99
2023-05-23T07:14:52.975Z,99.99
2023-05-23T07:15:53.000Z,99.99
2023-05-23T07:16:53.059Z,99.99
2023-05-23T07:17:53.185Z,99.99
2023-05-23T07:18:53.106Z,99.99
2023-05-23T07:19:53.102Z,99.99
2023-05-23T07:20:53.151Z,99.99
2023-05-23T07:21:53.254Z,99.99
2023-05-23T07:22:53.192Z,99.99
2023-05-23T07:23:53.194Z,99.99
2023-05-23T07:24:53.228Z,99.99
2023-05-23T07:26:01.719Z,99.99
2023-05-23T07:26:53.286Z,99.99
2023-05-23T07:27:53.292Z,99.99
2023-05-23T07:28:53.318Z,99.99
2023-05-23T07:29:53.352Z,99.99
2023-05-23T07:30:53.379Z,99.99
2023-05-23T07:31:53.392Z,99.99
2023-05-23T07:32:53.429Z,99.99
2023-05-23T07:33:55.667Z,99.99
2023-05-23T07:34:53.462Z,99.99
2023-05-23T07:35:53.489Z,99.99
2023-05-23T07:36:53.539Z,99.99
2023-05-23T07:37:53.576Z,99.99
2023-05-23T07:38:53.566Z,99.99
2023-05-23T07:39:53.602Z,99.99
2023-05-23T07:41:03.050Z,99.99
2023-05-23T07:41:53.640Z,99.99
2023-05-23T07:42:53.668Z,99.99
2023-05-23T07:43:53.684Z,99.99
2023-05-23T07:44:53.714Z,99.99
2023-05-23T07:45:53.740Z,99.99
2023-05-23T07:46:53.880Z,99.99
2023-05-23T07:47:53.849Z,99.99
2023-05-23T07:48:53.818Z,99.99
2023-05-23T07:49:53.850Z,99.99
2023-05-23T07:50:53.861Z,99.99
2023-05-23T07:51:53.883Z,99.99
2023-05-23T07:52:53.909Z,99.99
2023-05-23T07:53:53.932Z,99.99
2023-05-23T07:54:53.961Z,99.99
2023-05-23T07:55:53.993Z,99.99
2023-05-23T07:56:54.015Z,99.99
2023-05-23T07:57:54.033Z,99.99
2023-05-23T07:58:54.056Z,99.99
2023-05-23T07:59:54.077Z,99.99
2023-05-23T08:00:54.123Z,99.99
2023-05-23T08:01:54.147Z,99.99
2023-05-23T08:02:54.193Z,99.99
2023-05-23T08:03:54.219Z,99.99
2023-05-23T08:04:54.203Z,99.99
2023-05-23T08:05:54.231Z,99.99
2023-05-23T08:07:05.062Z,99.99
2023-05-23T08:07:54.276Z,99.99
2023-05-23T08:08:54.303Z,99.99
2023-05-23T08:09:54.331Z,99.99
2023-05-23T08:10:54.360Z,99.99
2023-05-23T08:11:54.425Z,99.99
2023-05-23T08:12:54.404Z,99.99
2023-05-23T08:13:54.423Z,99.99
2023-05-23T08:14:54.472Z,99.99
2023-05-23T08:15:54.475Z,99.99
2023-05-23T08:16:54.603Z,99.99
2023-05-23T08:17:54.671Z,99.99
2023-05-23T08:18:54.601Z,99.99
2023-05-23T08:19:54.627Z,99.99
2023-05-23T08:20:54.607Z,99.99
2023-05-23T08:21:54.625Z,99.99
2023-05-23T08:22:54.647Z,99.99
2023-05-23T08:23:54.677Z,99.99
2023-05-23T08:24:54.728Z,99.99
2023-05-23T08:25:54.739Z,99.99
2023-05-23T08:26:54.750Z,99.99
2023-05-23T08:27:54.781Z,99.99
2023-05-23T08:28:54.829Z,99.99
2023-05-23T08:29:54.820Z,99.99
2023-05-23T08:30:54.848Z,99.99
2023-05-23T08:31:54.883Z,99.99
2023-05-23T08:32:54.972Z,99.99
2023-05-23T08:33:54.921Z,99.99
2023-05-23T08:34:54.942Z,99.99
2023-05-23T08:35:54.976Z,99.99
2023-05-23T08:36:54.998Z,99.99
2023-05-23T08:37:55.024Z,99.99
2023-05-23T08:38:55.057Z,99.99
2023-05-23T08:39:55.089Z,99.99
2023-05-23T08:40:55.101Z,99.99
2023-05-23T08:41:55.119Z,99.99
2023-05-23T08:42:55.173Z,99.99
2023-05-23T08:43:55.175Z,99.99
2023-05-23T08:44:55.191Z,99.99
2023-05-23T08:45:55.266Z,99.99
2023-05-23T08:46:55.242Z,99.99
2023-05-23T08:47:55.300Z,99.99
2023-05-23T08:48:55.296Z,99.99
2023-05-23T08:49:55.336Z,99.99
2023-05-23T08:50:55.335Z,99.99
2023-05-23T08:51:55.361Z,99.99
2023-05-23T08:52:55.387Z,99.99
2023-05-23T08:53:55.410Z,99.99
2023-05-23T08:54:55.438Z,99.99
2023-05-23T08:55:55.468Z,99.99
2023-05-23T08:56:55.494Z,99.99
2023-05-23T08:57:55.539Z,99.99
2023-05-23T08:58:55.541Z,99.99
2023-05-23T08:59:55.554Z,99.99
2023-05-23T09:00:55.614Z,99.99
2023-05-23T09:01:55.783Z,99.99
2023-05-23T09:02:55.700Z,99.99
2023-05-23T09:03:55.653Z,99.99
2023-05-23T09:04:55.685Z,99.99
2023-05-23T09:05:55.828Z,99.99
2023-05-23T09:06:55.731Z,99.99
2023-05-23T09:07:55.756Z,99.99
2023-05-23T09:08:55.777Z,99.99
2023-05-23T09:09:55.799Z,99.99
2023-05-23T09:10:55.823Z,99.99
2023-05-23T09:11:55.850Z,99.99
2023-05-23T09:12:55.877Z,99.99
2023-05-23T09:13:55.900Z,99.99
2023-05-23T09:14:55.920Z,99.99
2023-05-23T09:15:55.977Z,99.99
2023-05-23T09:16:55.975Z,99.99
2023-05-23T09:17:56.007Z,99.99
2023-05-23T09:18:56.035Z,99.99
2023-05-23T09:19:56.052Z,99.99
2023-05-23T09:20:56.071Z,99.99
2023-05-23T09:21:56.106Z,99.99
2023-05-23T09:22:56.120Z,99.99
2023-05-23T09:23:56.141Z,99.99
2023-05-23T09:24:56.183Z,99.99
2023-05-23T09:25:56.189Z,99.99
2023-05-23T09:26:56.216Z,99.99
2023-05-23T09:27:56.236Z,99.99
2023-05-23T09:28:56.268Z,99.99
2023-05-23T09:29:56.298Z,99.99
2023-05-23T09:30:56.315Z,99.99
2023-05-23T09:31:56.379Z,99.99
2023-05-23T09:32:56.490Z,99.99
2023-05-23T09:33:56.395Z,99.99
2023-05-23T09:34:56.465Z,99.99
2023-05-23T09:36:03.595Z,99.99
2023-05-23T09:38:01.505Z,99.99
2023-05-23T09:39:03.103Z,99.99
2023-05-23T09:41:04.621Z,99.99
2023-05-23T09:42:04.514Z,99.99
2023-05-23T09:44:09.036Z,99.99
2023-05-23T09:45:08.552Z,99.99
2023-05-23T09:47:12.849Z,99.99
2023-05-23T09:48:12.675Z,99.99
2023-05-23T09:50:17.673Z,99.99
2023-05-23T09:51:16.631Z,99.99
2023-05-23T09:53:20.690Z,99.99
2023-05-23T09:54:20.660Z,99.99
2023-05-23T09:56:25.209Z,99.99
2023-05-23T09:57:24.706Z,99.99
2023-05-23T09:59:28.761Z,99.99
2023-05-23T10:00:28.835Z,99.99
2023-05-23T10:02:33.302Z,99.99
2023-05-23T10:03:32.781Z,99.99
2023-05-23T10:05:36.865Z,99.99
2023-05-23T10:06:36.846Z,99.99
2023-05-23T10:08:30.342Z,99.99
2023-05-23T10:09:29.782Z,99.99
2023-05-23T10:11:33.834Z,99.99
2023-05-23T10:12:33.827Z,99.99
2023-05-23T10:14:38.349Z,99.99
2023-05-23T10:15:37.882Z,99.99
2023-05-23T10:17:41.948Z,99.99
2023-05-23T10:18:41.933Z,99.99
2023-05-23T10:20:46.438Z,99.99
2023-05-23T10:21:46.821Z,99.99
2023-05-23T10:23:50.010Z,99.99
2023-05-23T10:24:49.982Z,99.99
2023-05-23T10:26:54.585Z,99.99
2023-05-23T10:27:54.307Z,99.99
2023-05-23T10:29:58.083Z,99.99
2023-05-23T10:30:58.157Z,99.99
2023-05-23T10:33:02.611Z,98.66
2023-05-23T10:34:02.117Z,97.23
2023-05-23T10:36:06.259Z,95.03
2023-05-23T10:37:06.189Z,94.74
2023-05-23T10:39:10.700Z,92.68
2023-05-23T10:40:10.220Z,92.58
2023-05-23T10:42:14.288Z,91.05
2023-05-23T10:43:14.280Z,90.39
2023-05-23T10:45:18.845Z,90.29
2023-05-23T10:46:18.416Z,90.00
2023-05-23T10:48:11.393Z,89.37
2023-05-23T10:49:11.334Z,88.42
2023-05-23T10:51:15.855Z,86.98
2023-05-23T10:52:15.366Z,87.17
2023-05-23T10:54:19.427Z,86.60
2023-05-23T10:55:19.404Z,87.27
2023-05-23T10:57:23.936Z,85.54
2023-05-23T10:58:23.650Z,85.83
2023-05-23T11:00:27.507Z,84.88
2023-05-23T11:01:27.584Z,85.30
2023-05-23T11:03:32.135Z,82.90
2023-05-23T11:04:31.566Z,83.00
2023-05-23T11:06:24.757Z,82.90
2023-05-23T11:07:24.733Z,82.81
2023-05-23T11:09:18.257Z,82.65
2023-05-23T11:10:17.904Z,82.94
2023-05-23T11:12:21.978Z,80.83
2023-05-23T11:13:21.956Z,80.51
2023-05-23T11:15:26.471Z,80.89
2023-05-23T11:16:26.049Z,81.33
2023-05-23T11:18:19.057Z,81.52
2023-05-23T11:19:19.071Z,81.23
2023-05-23T11:22:27.518Z,81.90
2023-05-23T11:23:27.016Z,81.33
2023-05-23T11:25:31.087Z,82.38
2023-05-23T11:26:31.116Z,81.90
2023-05-23T11:28:25.579Z,81.90
2023-05-23T11:29:24.045Z,82.86
2023-05-23T11:30:24.075Z,82.29
2023-05-23T11:31:24.119Z,81.52
2023-05-23T11:32:24.187Z,81.81
2023-05-23T11:33:24.159Z,81.52
2023-05-23T11:34:24.174Z,81.52
2023-05-23T11:35:24.206Z,82.48
2023-05-23T11:36:24.249Z,81.52
2023-05-23T11:37:25.947Z,81.52
2023-05-23T11:38:24.290Z,81.81
2023-05-23T11:39:24.337Z,81.08
2023-05-23T11:40:24.341Z,80.51
2023-05-23T11:41:24.389Z,80.89
2023-05-23T11:42:24.392Z,80.79
2023-05-23T11:43:24.427Z,79.55
2023-05-23T11:44:24.452Z,79.07
2023-05-23T11:45:24.504Z,78.88
2023-05-23T11:46:24.574Z,78.55
2023-05-23T11:47:24.584Z,79.32
2023-05-23T11:48:24.562Z,80.18
2023-05-23T11:49:24.594Z,80.85
2023-05-23T11:50:24.697Z,81.43
2023-05-23T11:51:24.640Z,81.33
2023-05-23T11:52:24.667Z,81.56
2023-05-23T11:53:24.699Z,80.85
2023-05-23T11:54:24.724Z,79.64
2023-05-23T11:55:24.780Z,80.22
2023-05-23T11:56:24.771Z,80.89
2023-05-23T11:57:24.799Z,80.60
2023-05-23T11:58:24.825Z,78.20
2023-05-23T11:59:24.853Z,77.15
2023-05-23T12:00:24.876Z,76.96
2023-05-23T12:01:24.905Z,77.00
2023-05-23T12:02:25.021Z,77.19
2023-05-23T12:03:25.119Z,77.29
2023-05-23T12:04:25.062Z,77.29
2023-05-23T12:05:25.025Z,77.38
2023-05-23T12:06:25.138Z,76.71
2023-05-23T12:07:25.127Z,77.29
2023-05-23T12:08:25.092Z,75.46
2023-05-23T12:09:25.124Z,74.41
2023-05-23T12:10:25.147Z,73.65
2023-05-23T12:11:25.189Z,73.55
2023-05-23T12:12:25.202Z,73.26
2023-05-23T12:13:25.235Z,72.20
2023-05-23T12:14:25.257Z,72.01
2023-05-23T12:15:25.284Z,72.97
2023-05-23T12:16:25.369Z,73.45
2023-05-23T12:17:25.407Z,72.49
2023-05-23T12:18:25.378Z,73.26
2023-05-23T12:19:25.413Z,73.83
2023-05-23T12:20:25.427Z,73.65
2023-05-23T12:21:25.449Z,73.83
2023-05-23T12:22:25.475Z,72.68
2023-05-23T12:23:25.524Z,72.97
2023-05-23T12:24:25.532Z,73.10
2023-05-23T12:25:25.553Z,72.43
2023-05-23T12:26:25.577Z,72.81
2023-05-23T12:27:25.606Z,72.91
2023-05-23T12:28:25.635Z,71.86
2023-05-23T12:29:25.666Z,71.47
2023-05-23T12:30:25.695Z,70.99
2023-05-23T12:31:25.766Z,70.80
2023-05-23T12:32:25.773Z,71.41
2023-05-23T12:33:25.780Z,71.51
2023-05-23T12:34:25.816Z,71.03
2023-05-23T12:35:25.842Z,70.36
2023-05-23T12:36:25.860Z,70.17
2023-05-23T12:37:25.931Z,70.84
2023-05-23T12:38:25.914Z,72.08
2023-05-23T12:39:25.940Z,70.55
2023-05-23T12:40:25.975Z,71.31
2023-05-23T12:41:25.997Z,69.40
2023-05-23T12:42:26.017Z,69.07
2023-05-23T12:43:26.062Z,70.03
2023-05-23T12:44:26.075Z,70.36
2023-05-23T12:45:26.151Z,71.51
2023-05-23T12:46:26.236Z,71.80
2023-05-23T12:47:26.406Z,71.31
2023-05-23T12:48:26.278Z,69.97
2023-05-23T12:49:26.216Z,69.78
2023-05-23T12:50:26.242Z,69.65
2023-05-23T12:51:26.270Z,69.56
2023-05-23T12:52:26.315Z,68.91
2023-05-23T12:53:26.346Z,68.53
2023-05-23T12:54:26.359Z,68.82
2023-05-23T12:55:26.391Z,69.40
2023-05-23T12:56:26.409Z,69.68
2023-05-23T12:57:26.444Z,70.17
2023-05-23T12:58:27.289Z,70.26
2023-05-23T12:59:26.497Z,70.26
2023-05-23T13:00:26.525Z,69.11
2023-05-23T13:01:26.587Z,67.86
2023-05-23T13:02:26.621Z,67.09
2023-05-23T13:03:26.636Z,66.52
2023-05-23T13:04:27.255Z,66.13
2023-05-23T13:05:26.667Z,67.13
2023-05-23T13:06:26.695Z,66.84
2023-05-23T13:07:26.719Z,66.07
2023-05-23T13:08:26.768Z,66.84
2023-05-23T13:09:26.785Z,65.20
2023-05-23T13:10:27.676Z,64.72
2023-05-23T13:11:26.832Z,65.40
2023-05-23T13:12:26.869Z,65.01
2023-05-23T13:13:26.900Z,65.23
2023-05-23T13:14:26.913Z,65.05
2023-05-23T13:15:26.947Z,64.53
2023-05-23T13:16:26.994Z,66.16
2023-05-23T13:17:27.023Z,64.25
2023-05-23T13:18:27.028Z,64.92
2023-05-23T13:19:27.090Z,64.92
2023-05-23T13:20:27.098Z,64.92
2023-05-23T13:21:27.114Z,65.78
2023-05-23T13:22:27.145Z,66.64
2023-05-23T13:23:27.169Z,66.74
2023-05-23T13:24:27.211Z,66.93
2023-05-23T13:25:27.254Z,66.55
2023-05-23T13:26:27.256Z,65.65
2023-05-23T13:27:27.301Z,65.36
2023-05-23T13:28:27.311Z,64.89
2023-05-23T13:29:27.337Z,65.84
2023-05-23T13:30:27.368Z,65.27
2023-05-23T13:31:27.471Z,65.17
2023-05-23T13:32:27.485Z,66.23